CST,Max TemperatureF,Mean TemperatureF,Min TemperatureF,Max Dew PointF,MeanDew PointF,Min DewpointF,Max Humidity, Mean Humidity, Min Humidity, Max Sea Level PressureIn, Mean Sea Level PressureIn, Min Sea Level PressureIn, Max VisibilityMiles, Mean VisibilityMiles, Min VisibilityMiles, Max Wind SpeedMPH, Mean Wind SpeedMPH, Max Gust SpeedMPH,PrecipitationIn, CloudCover, Events, WindDirDegrees
2012-12-1,64,48,33,34,29,23,75,53,27,30.02,29.89,29.78,10,10,5,23,8,28,0.00,0,,308
2012-12-2,69,50,30,37,26,19,70,47,21,30.05,29.93,29.71,10,10,10,20,7,25,0.00,0,,203
2012-12-3,68,52,37,32,25,14,53,36,24,30.18,29.91,29.68,10,10,8,33,16,41,0.00,1,,332
2012-12-4,57,42,28,27,19,10,64,41,21,30.39,30.30,30.18,10,10,5,13,6,,0.00,1,,219
2012-12-5,62,46,30,27,19,10,51,35,24,30.27,30.08,29.84,10,10,10,28,14,33,0.00,0,,177
2012-12-6,57,45,33,32,22,14,52,41,33,29.98,29.87,29.74,10,10,10,28,13,33,0.00,0,,360
2012-12-7,53,38,24,28,20,12,64,49,33,29.97,29.90,29.82,10,10,7,9,5,,0.00,1,,346
2012-12-8,46,34,21,34,24,10,81,67,46,29.98,29.85,29.71,10,9,0,21,8,24,0.00,2,,138
2012-12-9,35,26,15,30,12,-2,86,51,36,30.24,30.07,29.83,10,9,0,31,19,40,0.00,6,,351
2012-12-10,42,22,3,12,1,-8,67,42,18,30.23,30.04,29.91,10,10,10,20,10,23,0.00,0,,232
2012-12-11,44,30,15,18,9,0,63,45,31,30.11,30.04,29.96,10,10,8,14,7,,0.00,1,,241
2012-12-12,55,37,19,18,12,3,58,40,22,30.02,29.96,29.91,10,10,10,18,13,24,0.00,0,,183
2012-12-13,66,44,23,21,14,9,55,35,15,30.04,29.98,29.94,10,10,10,14,10,,0.00,0,,209
2012-12-14,53,43,33,46,34,10,82,68,38,29.97,29.74,29.44,10,10,8,28,14,36,0.14,4,Thunderstorm,176
2012-12-15,57,42,28,36,29,23,81,63,33,29.76,29.69,29.48,10,10,10,22,11,30,0.03,0,,292
2012-12-16,37,30,24,34,26,18,87,82,74,29.87,29.74,29.66,10,7,0,17,5,21,0.00,3,,344
2012-12-17,55,40,24,37,25,19,87,69,33,29.87,29.78,29.66,10,9,0,22,9,26,0.00,1,,249
2012-12-18,53,38,24,28,18,12,74,44,21,29.87,29.77,29.66,10,10,10,15,10,21,0.00,0,,20
2012-12-19,53,40,26,32,22,18,74,55,37,30.04,29.65,29.49,10,9,2,46,16,55,0.00,3,,277
2012-12-20,44,30,17,18,10,3,64,48,23,30.35,30.26,30.05,10,10,10,31,20,45,0.00,0,,286
2012-12-21,57,37,17,21,13,7,69,44,20,30.29,30.20,30.10,10,10,10,15,8,,0.00,0,,219
2012-12-22,53,36,19,21,15,3,64,46,24,30.09,30.00,29.93,10,10,10,14,9,,0.00,0,,305
2012-12-23,48,32,15,25,17,7,80,61,34,29.99,29.94,29.86,10,10,10,18,8,,0.00,0,,316
2012-12-24,37,28,19,19,15,9,74,60,45,30.03,29.92,29.81,10,10,10,21,11,25,0.00,0,,80
2012-12-25,19,14,8,10,7,0,79,71,63,30.29,30.14,29.91,10,6,1,30,21,36,0.00,8,,8
2012-12-26,24,12,0,12,4,-8,85,70,54,30.25,30.04,29.82,10,10,10,20,10,26,0.00,0,,154
2012-12-27,23,16,10,16,12,3,85,74,67,29.96,29.80,29.69,10,10,10,23,15,28,0.00,5,,353
2012-12-28,33,22,12,19,11,5,79,68,52,30.18,30.03,29.95,10,10,10,20,12,24,0.00,3,,326
2012-12-29,44,27,10,25,13,3,79,59,31,30.33,30.24,30.18,10,10,10,16,10,21,0.00,0,,246
2012-12-30,42,33,24,21,17,12,64,51,39,30.17,30.05,29.96,10,10,10,30,17,37,0.00,1,,187
2012-12-31,33,20,8,28,19,3,87,80,60,30.13,29.98,29.90,10,7,0,25,14,29,0.28,7,,1